<?xml version="1.0" encoding="UTF-8" standalone="no" ?>
<gpx xmlns="http://www.topografix.com/GPX/1/1" xmlns:xsi="http://www.w3.org/2001/XMLSchema-instance" xsi:schemaLocation="http://www.topografix.com/GPX/1/1 http://www.topografix.com/GPX/1/1/gpx.xsd" version="1.1" creator="VisuGPX - https://www.visugpx.com">
  <metadata>
    <name>Le Sommet de Tignous depuis Espiadet.</name>
  </metadata>
  <trk>
    <name><![CDATA[Le Sommet de Tignous depuis Espiadet.]]></name>
    <trkseg>
      <trkpt lat="42.94441" lon="0.28841">
        <ele>1122</ele>
        <time>2022-05-11T08:43:19Z</time>
      </trkpt>
      <trkpt lat="42.94463" lon="0.28829">
        <ele>1092</ele>
        <time>2022-05-11T08:43:29Z</time>
      </trkpt>
      <trkpt lat="42.94484" lon="0.28817">
        <ele>1107</ele>
        <time>2022-05-11T08:48:31Z</time>
      </trkpt>
      <trkpt lat="42.94506" lon="0.28821">
        <ele>1112</ele>
        <time>2022-05-11T08:48:57Z</time>
      </trkpt>
      <trkpt lat="42.94528" lon="0.28807">
        <ele>1104</ele>
        <time>2022-05-11T08:49:29Z</time>
      </trkpt>
      <trkpt lat="42.94541" lon="0.28782">
        <ele>1100</ele>
        <time>2022-05-11T08:50:03Z</time>
      </trkpt>
      <trkpt lat="42.94529" lon="0.28753">
        <ele>1099</ele>
        <time>2022-05-11T08:50:32Z</time>
      </trkpt>
      <trkpt lat="42.94533" lon="0.28722">
        <ele>1118</ele>
        <time>2022-05-11T08:51:03Z</time>
      </trkpt>
      <trkpt lat="42.94553" lon="0.28706">
        <ele>1124</ele>
        <time>2022-05-11T08:51:43Z</time>
      </trkpt>
      <trkpt lat="42.94574" lon="0.28698">
        <ele>1125</ele>
        <time>2022-05-11T08:52:23Z</time>
      </trkpt>
      <trkpt lat="42.94595" lon="0.2868">
        <ele>1123</ele>
        <time>2022-05-11T08:52:57Z</time>
      </trkpt>
      <trkpt lat="42.94616" lon="0.28668">
        <ele>1131</ele>
        <time>2022-05-11T08:53:35Z</time>
      </trkpt>
      <trkpt lat="42.94624" lon="0.28639">
        <ele>1139</ele>
        <time>2022-05-11T08:54:12Z</time>
      </trkpt>
      <trkpt lat="42.94645" lon="0.28626">
        <ele>1139</ele>
        <time>2022-05-11T08:54:40Z</time>
      </trkpt>
      <trkpt lat="42.94661" lon="0.28604">
        <ele>1147</ele>
        <time>2022-05-11T08:55:32Z</time>
      </trkpt>
      <trkpt lat="42.94671" lon="0.28575">
        <ele>1152</ele>
        <time>2022-05-11T08:56:16Z</time>
      </trkpt>
      <trkpt lat="42.94666" lon="0.28543">
        <ele>1151</ele>
        <time>2022-05-11T08:56:57Z</time>
      </trkpt>
      <trkpt lat="42.94679" lon="0.28517">
        <ele>1147</ele>
        <time>2022-05-11T08:57:55Z</time>
      </trkpt>
      <trkpt lat="42.94695" lon="0.28493">
        <ele>1155</ele>
        <time>2022-05-11T08:58:43Z</time>
      </trkpt>
      <trkpt lat="42.947" lon="0.2846">
        <ele>1158</ele>
        <time>2022-05-11T08:59:31Z</time>
      </trkpt>
      <trkpt lat="42.94721" lon="0.28442">
        <ele>1168</ele>
        <time>2022-05-11T09:00:30Z</time>
      </trkpt>
      <trkpt lat="42.94737" lon="0.2842">
        <ele>1175</ele>
        <time>2022-05-11T09:00:59Z</time>
      </trkpt>
      <trkpt lat="42.94733" lon="0.28453">
        <ele>1193</ele>
        <time>2022-05-11T09:01:55Z</time>
      </trkpt>
      <trkpt lat="42.94737" lon="0.28484">
        <ele>1206</ele>
        <time>2022-05-11T09:02:36Z</time>
      </trkpt>
      <trkpt lat="42.94751" lon="0.28511">
        <ele>1214</ele>
        <time>2022-05-11T09:03:10Z</time>
      </trkpt>
      <trkpt lat="42.94758" lon="0.28542">
        <ele>1217</ele>
        <time>2022-05-11T09:04:43Z</time>
      </trkpt>
      <trkpt lat="42.94781" lon="0.28531">
        <ele>1215</ele>
        <time>2022-05-11T09:05:49Z</time>
      </trkpt>
      <trkpt lat="42.94796" lon="0.28506">
        <ele>1215</ele>
        <time>2022-05-11T09:07:01Z</time>
      </trkpt>
      <trkpt lat="42.94811" lon="0.28481">
        <ele>1221</ele>
        <time>2022-05-11T09:07:44Z</time>
      </trkpt>
      <trkpt lat="42.94826" lon="0.28455">
        <ele>1238</ele>
        <time>2022-05-11T09:08:37Z</time>
      </trkpt>
      <trkpt lat="42.94849" lon="0.28449">
        <ele>1236</ele>
        <time>2022-05-11T09:09:10Z</time>
      </trkpt>
      <trkpt lat="42.9487" lon="0.28434">
        <ele>1241</ele>
        <time>2022-05-11T09:10:49Z</time>
      </trkpt>
      <trkpt lat="42.94885" lon="0.28462">
        <ele>1246</ele>
        <time>2022-05-11T09:12:16Z</time>
      </trkpt>
      <trkpt lat="42.94887" lon="0.28493">
        <ele>1247</ele>
        <time>2022-05-11T09:12:56Z</time>
      </trkpt>
      <trkpt lat="42.94893" lon="0.28524">
        <ele>1263</ele>
        <time>2022-05-11T09:15:03Z</time>
      </trkpt>
      <trkpt lat="42.9491" lon="0.28548">
        <ele>1272</ele>
        <time>2022-05-11T09:15:36Z</time>
      </trkpt>
      <trkpt lat="42.94913" lon="0.2858">
        <ele>1278</ele>
        <time>2022-05-11T09:16:07Z</time>
      </trkpt>
      <trkpt lat="42.94928" lon="0.28607">
        <ele>1286</ele>
        <time>2022-05-11T09:16:49Z</time>
      </trkpt>
      <trkpt lat="42.94936" lon="0.28637">
        <ele>1285</ele>
        <time>2022-05-11T09:17:34Z</time>
      </trkpt>
      <trkpt lat="42.94941" lon="0.28671">
        <ele>1290</ele>
        <time>2022-05-11T09:18:33Z</time>
      </trkpt>
      <trkpt lat="42.94953" lon="0.28699">
        <ele>1292</ele>
        <time>2022-05-11T09:19:10Z</time>
      </trkpt>
      <trkpt lat="42.94964" lon="0.28728">
        <ele>1292</ele>
        <time>2022-05-11T09:19:53Z</time>
      </trkpt>
      <trkpt lat="42.94982" lon="0.28753">
        <ele>1297</ele>
        <time>2022-05-11T09:20:41Z</time>
      </trkpt>
      <trkpt lat="42.94995" lon="0.28783">
        <ele>1304</ele>
        <time>2022-05-11T09:21:10Z</time>
      </trkpt>
      <trkpt lat="42.95015" lon="0.288">
        <ele>1319</ele>
        <time>2022-05-11T09:26:10Z</time>
      </trkpt>
      <trkpt lat="42.9501" lon="0.28768">
        <ele>1310</ele>
        <time>2022-05-11T09:27:33Z</time>
      </trkpt>
      <trkpt lat="42.95009" lon="0.28735">
        <ele>1298</ele>
        <time>2022-05-11T09:27:55Z</time>
      </trkpt>
      <trkpt lat="42.95004" lon="0.28704">
        <ele>1314</ele>
        <time>2022-05-11T09:28:25Z</time>
      </trkpt>
      <trkpt lat="42.95026" lon="0.28682">
        <ele>1320</ele>
        <time>2022-05-11T09:28:49Z</time>
      </trkpt>
      <trkpt lat="42.95037" lon="0.28711">
        <ele>1324</ele>
        <time>2022-05-11T09:29:33Z</time>
      </trkpt>
      <trkpt lat="42.95049" lon="0.2874">
        <ele>1324</ele>
        <time>2022-05-11T09:29:59Z</time>
      </trkpt>
      <trkpt lat="42.95059" lon="0.28769">
        <ele>1327</ele>
        <time>2022-05-11T09:30:43Z</time>
      </trkpt>
      <trkpt lat="42.95077" lon="0.28789">
        <ele>1336</ele>
        <time>2022-05-11T09:31:26Z</time>
      </trkpt>
      <trkpt lat="42.95095" lon="0.28768">
        <ele>1335</ele>
        <time>2022-05-11T09:31:41Z</time>
      </trkpt>
      <trkpt lat="42.95118" lon="0.28772">
        <ele>1332</ele>
        <time>2022-05-11T09:32:04Z</time>
      </trkpt>
      <trkpt lat="42.95124" lon="0.28803">
        <ele>1337</ele>
        <time>2022-05-11T09:32:32Z</time>
      </trkpt>
      <trkpt lat="42.95141" lon="0.28828">
        <ele>1363</ele>
        <time>2022-05-11T09:33:03Z</time>
      </trkpt>
      <trkpt lat="42.95161" lon="0.2884">
        <ele>1367</ele>
        <time>2022-05-11T09:33:27Z</time>
      </trkpt>
      <trkpt lat="42.95169" lon="0.28871">
        <ele>1371</ele>
        <time>2022-05-11T09:34:31Z</time>
      </trkpt>
      <trkpt lat="42.95188" lon="0.28889">
        <ele>1366</ele>
        <time>2022-05-11T09:34:51Z</time>
      </trkpt>
      <trkpt lat="42.95206" lon="0.2891">
        <ele>1367</ele>
        <time>2022-05-11T09:37:01Z</time>
      </trkpt>
      <trkpt lat="42.95219" lon="0.28937">
        <ele>1370</ele>
        <time>2022-05-11T09:37:34Z</time>
      </trkpt>
      <trkpt lat="42.95217" lon="0.28971">
        <ele>1383</ele>
        <time>2022-05-11T09:38:40Z</time>
      </trkpt>
      <trkpt lat="42.95233" lon="0.28997">
        <ele>1387</ele>
        <time>2022-05-11T09:39:05Z</time>
      </trkpt>
      <trkpt lat="42.95256" lon="0.29009">
        <ele>1385</ele>
        <time>2022-05-11T09:39:36Z</time>
      </trkpt>
      <trkpt lat="42.9527" lon="0.29035">
        <ele>1392</ele>
        <time>2022-05-11T09:40:06Z</time>
      </trkpt>
      <trkpt lat="42.95293" lon="0.2905">
        <ele>1393</ele>
        <time>2022-05-11T09:40:34Z</time>
      </trkpt>
      <trkpt lat="42.95316" lon="0.2905">
        <ele>1393</ele>
        <time>2022-05-11T09:40:48Z</time>
      </trkpt>
      <trkpt lat="42.95335" lon="0.29033">
        <ele>1392</ele>
        <time>2022-05-11T09:41:07Z</time>
      </trkpt>
      <trkpt lat="42.95339" lon="0.29002">
        <ele>1381</ele>
        <time>2022-05-11T09:42:01Z</time>
      </trkpt>
      <trkpt lat="42.9535" lon="0.28974">
        <ele>1377</ele>
        <time>2022-05-11T09:42:32Z</time>
      </trkpt>
      <trkpt lat="42.95372" lon="0.2896">
        <ele>1382</ele>
        <time>2022-05-11T09:42:49Z</time>
      </trkpt>
      <trkpt lat="42.95349" lon="0.28953">
        <ele>1377</ele>
        <time>2022-05-11T09:43:08Z</time>
      </trkpt>
      <trkpt lat="42.95341" lon="0.28922">
        <ele>1375</ele>
        <time>2022-05-11T09:43:48Z</time>
      </trkpt>
      <trkpt lat="42.9532" lon="0.28937">
        <ele>1380</ele>
        <time>2022-05-11T09:44:12Z</time>
      </trkpt>
      <trkpt lat="42.95297" lon="0.28921">
        <ele>1389</ele>
        <time>2022-05-11T09:44:52Z</time>
      </trkpt>
      <trkpt lat="42.9528" lon="0.28901">
        <ele>1401</ele>
        <time>2022-05-11T09:45:31Z</time>
      </trkpt>
      <trkpt lat="42.95272" lon="0.2887">
        <ele>1404</ele>
        <time>2022-05-11T09:46:08Z</time>
      </trkpt>
      <trkpt lat="42.95275" lon="0.28839">
        <ele>1412</ele>
        <time>2022-05-11T09:46:42Z</time>
      </trkpt>
      <trkpt lat="42.95274" lon="0.28805">
        <ele>1410</ele>
        <time>2022-05-11T09:47:51Z</time>
      </trkpt>
      <trkpt lat="42.95261" lon="0.28777">
        <ele>1417</ele>
        <time>2022-05-11T09:48:23Z</time>
      </trkpt>
      <trkpt lat="42.95257" lon="0.28746">
        <ele>1427</ele>
        <time>2022-05-11T09:49:00Z</time>
      </trkpt>
      <trkpt lat="42.95249" lon="0.28715">
        <ele>1430</ele>
        <time>2022-05-11T09:50:07Z</time>
      </trkpt>
      <trkpt lat="42.95262" lon="0.28683">
        <ele>1427</ele>
        <time>2022-05-11T09:50:37Z</time>
      </trkpt>
      <trkpt lat="42.95284" lon="0.28677">
        <ele>1439</ele>
        <time>2022-05-11T09:57:52Z</time>
      </trkpt>
      <trkpt lat="42.95307" lon="0.28662">
        <ele>1438</ele>
        <time>2022-05-11T09:58:37Z</time>
      </trkpt>
      <trkpt lat="42.95328" lon="0.2868">
        <ele>1434</ele>
        <time>2022-05-11T09:59:18Z</time>
      </trkpt>
      <trkpt lat="42.95346" lon="0.28702">
        <ele>1437</ele>
        <time>2022-05-11T09:59:52Z</time>
      </trkpt>
      <trkpt lat="42.9537" lon="0.28715">
        <ele>1436</ele>
        <time>2022-05-11T10:00:10Z</time>
      </trkpt>
      <trkpt lat="42.95392" lon="0.28728">
        <ele>1438</ele>
        <time>2022-05-11T10:00:36Z</time>
      </trkpt>
      <trkpt lat="42.9541" lon="0.28747">
        <ele>1438</ele>
        <time>2022-05-11T10:01:01Z</time>
      </trkpt>
      <trkpt lat="42.95432" lon="0.28763">
        <ele>1442</ele>
        <time>2022-05-11T10:01:22Z</time>
      </trkpt>
      <trkpt lat="42.95452" lon="0.2878">
        <ele>1446</ele>
        <time>2022-05-11T10:01:50Z</time>
      </trkpt>
      <trkpt lat="42.95471" lon="0.28797">
        <ele>1459</ele>
        <time>2022-05-11T10:02:30Z</time>
      </trkpt>
      <trkpt lat="42.9549" lon="0.28777">
        <ele>1454</ele>
        <time>2022-05-11T10:02:54Z</time>
      </trkpt>
      <trkpt lat="42.95504" lon="0.28752">
        <ele>1459</ele>
        <time>2022-05-11T10:03:22Z</time>
      </trkpt>
      <trkpt lat="42.9552" lon="0.28729">
        <ele>1466</ele>
        <time>2022-05-11T10:03:53Z</time>
      </trkpt>
      <trkpt lat="42.95539" lon="0.28708">
        <ele>1480</ele>
        <time>2022-05-11T10:12:37Z</time>
      </trkpt>
      <trkpt lat="42.95562" lon="0.28703">
        <ele>1476</ele>
        <time>2022-05-11T10:13:11Z</time>
      </trkpt>
      <trkpt lat="42.95574" lon="0.28674">
        <ele>1480</ele>
        <time>2022-05-11T10:14:24Z</time>
      </trkpt>
      <trkpt lat="42.95586" lon="0.28647">
        <ele>1488</ele>
        <time>2022-05-11T10:16:08Z</time>
      </trkpt>
      <trkpt lat="42.9561" lon="0.28643">
        <ele>1489</ele>
        <time>2022-05-11T10:16:40Z</time>
      </trkpt>
      <trkpt lat="42.95633" lon="0.28637">
        <ele>1492</ele>
        <time>2022-05-11T10:16:52Z</time>
      </trkpt>
      <trkpt lat="42.95641" lon="0.28608">
        <ele>1497</ele>
        <time>2022-05-11T10:17:39Z</time>
      </trkpt>
      <trkpt lat="42.95664" lon="0.28596">
        <ele>1507</ele>
        <time>2022-05-11T10:20:55Z</time>
      </trkpt>
      <trkpt lat="42.9564" lon="0.28594">
        <ele>1509</ele>
        <time>2022-05-11T10:21:19Z</time>
      </trkpt>
      <trkpt lat="42.9566" lon="0.28577">
        <ele>1508</ele>
        <time>2022-05-11T10:24:12Z</time>
      </trkpt>
      <trkpt lat="42.95683" lon="0.28572">
        <ele>1507</ele>
        <time>2022-05-11T10:24:33Z</time>
      </trkpt>
      <trkpt lat="42.95714" lon="0.28562">
        <ele>1514</ele>
        <time>2022-05-11T10:25:34Z</time>
      </trkpt>
      <trkpt lat="42.95735" lon="0.28548">
        <ele>1519</ele>
        <time>2022-05-11T10:26:40Z</time>
      </trkpt>
      <trkpt lat="42.95755" lon="0.28531">
        <ele>1527</ele>
        <time>2022-05-11T10:29:30Z</time>
      </trkpt>
      <trkpt lat="42.9578" lon="0.28528">
        <ele>1528</ele>
        <time>2022-05-11T10:30:41Z</time>
      </trkpt>
      <trkpt lat="42.95798" lon="0.28508">
        <ele>1526</ele>
        <time>2022-05-11T10:34:25Z</time>
      </trkpt>
      <trkpt lat="42.95823" lon="0.28505">
        <ele>1525</ele>
        <time>2022-05-11T10:34:53Z</time>
      </trkpt>
      <trkpt lat="42.95845" lon="0.28494">
        <ele>1530</ele>
        <time>2022-05-11T10:41:46Z</time>
      </trkpt>
      <trkpt lat="42.95862" lon="0.28514">
        <ele>1531</ele>
        <time>2022-05-11T10:44:08Z</time>
      </trkpt>
      <trkpt lat="42.9588" lon="0.28494">
        <ele>1534</ele>
        <time>2022-05-11T10:45:17Z</time>
      </trkpt>
      <trkpt lat="42.95902" lon="0.28483">
        <ele>1532</ele>
        <time>2022-05-11T10:46:34Z</time>
      </trkpt>
      <trkpt lat="42.9592" lon="0.28463">
        <ele>1525</ele>
        <time>2022-05-11T10:48:19Z</time>
      </trkpt>
      <trkpt lat="42.95941" lon="0.28447">
        <ele>1525</ele>
        <time>2022-05-11T10:49:40Z</time>
      </trkpt>
      <trkpt lat="42.95956" lon="0.28423">
        <ele>1530</ele>
        <time>2022-05-11T10:51:20Z</time>
      </trkpt>
      <trkpt lat="42.95974" lon="0.28403">
        <ele>1508</ele>
        <time>2022-05-11T10:55:30Z</time>
      </trkpt>
      <trkpt lat="42.95997" lon="0.28396">
        <ele>1503</ele>
        <time>2022-05-11T10:58:34Z</time>
      </trkpt>
      <trkpt lat="42.9602" lon="0.28406">
        <ele>1500</ele>
        <time>2022-05-11T10:59:15Z</time>
      </trkpt>
      <trkpt lat="42.96044" lon="0.28413">
        <ele>1503</ele>
        <time>2022-05-11T10:59:51Z</time>
      </trkpt>
      <trkpt lat="42.96067" lon="0.28418">
        <ele>1511</ele>
        <time>2022-05-11T11:00:34Z</time>
      </trkpt>
      <trkpt lat="42.96088" lon="0.28431">
        <ele>1514</ele>
        <time>2022-05-11T11:01:05Z</time>
      </trkpt>
      <trkpt lat="42.96109" lon="0.28444">
        <ele>1523</ele>
        <time>2022-05-11T11:01:32Z</time>
      </trkpt>
      <trkpt lat="42.96127" lon="0.28465">
        <ele>1529</ele>
        <time>2022-05-11T11:02:24Z</time>
      </trkpt>
      <trkpt lat="42.96147" lon="0.28484">
        <ele>1528</ele>
        <time>2022-05-11T11:02:56Z</time>
      </trkpt>
      <trkpt lat="42.96128" lon="0.28503">
        <ele>1528</ele>
        <time>2022-05-11T11:03:39Z</time>
      </trkpt>
      <trkpt lat="42.96104" lon="0.28502">
        <ele>1531</ele>
        <time>2022-05-11T11:04:48Z</time>
      </trkpt>
      <trkpt lat="42.9608" lon="0.28507">
        <ele>1534</ele>
        <time>2022-05-11T11:05:18Z</time>
      </trkpt>
      <trkpt lat="42.96054" lon="0.28506">
        <ele>1536</ele>
        <time>2022-05-11T11:05:49Z</time>
      </trkpt>
      <trkpt lat="42.96031" lon="0.28512">
        <ele>1534</ele>
        <time>2022-05-11T11:06:37Z</time>
      </trkpt>
      <trkpt lat="42.96008" lon="0.28517">
        <ele>1534</ele>
        <time>2022-05-11T11:06:59Z</time>
      </trkpt>
      <trkpt lat="42.95985" lon="0.28526">
        <ele>1536</ele>
        <time>2022-05-11T11:07:35Z</time>
      </trkpt>
      <trkpt lat="42.95963" lon="0.28536">
        <ele>1534</ele>
        <time>2022-05-11T11:08:16Z</time>
      </trkpt>
      <trkpt lat="42.9594" lon="0.28547">
        <ele>1536</ele>
        <time>2022-05-11T11:08:49Z</time>
      </trkpt>
      <trkpt lat="42.9592" lon="0.28565">
        <ele>1542</ele>
        <time>2022-05-11T11:11:58Z</time>
      </trkpt>
      <trkpt lat="42.95899" lon="0.28578">
        <ele>1543</ele>
        <time>2022-05-11T11:12:25Z</time>
      </trkpt>
      <trkpt lat="42.95877" lon="0.28595">
        <ele>1548</ele>
        <time>2022-05-11T11:12:54Z</time>
      </trkpt>
      <trkpt lat="42.95855" lon="0.28605">
        <ele>1555</ele>
        <time>2022-05-11T11:13:23Z</time>
      </trkpt>
      <trkpt lat="42.95837" lon="0.28627">
        <ele>1551</ele>
        <time>2022-05-11T11:14:11Z</time>
      </trkpt>
      <trkpt lat="42.95818" lon="0.28647">
        <ele>1555</ele>
        <time>2022-05-11T11:14:51Z</time>
      </trkpt>
      <trkpt lat="42.95799" lon="0.28667">
        <ele>1568</ele>
        <time>2022-05-11T11:15:25Z</time>
      </trkpt>
      <trkpt lat="42.95794" lon="0.28697">
        <ele>1577</ele>
        <time>2022-05-11T11:16:55Z</time>
      </trkpt>
      <trkpt lat="42.95808" lon="0.28722">
        <ele>1584</ele>
        <time>2022-05-11T11:18:01Z</time>
      </trkpt>
      <trkpt lat="42.95823" lon="0.28747">
        <ele>1595</ele>
        <time>2022-05-11T11:19:40Z</time>
      </trkpt>
      <trkpt lat="42.95826" lon="0.28778">
        <ele>1606</ele>
        <time>2022-05-11T11:20:37Z</time>
      </trkpt>
      <trkpt lat="42.95829" lon="0.28809">
        <ele>1614</ele>
        <time>2022-05-11T11:21:17Z</time>
      </trkpt>
      <trkpt lat="42.95852" lon="0.28813">
        <ele>1615</ele>
        <time>2022-05-11T11:21:58Z</time>
      </trkpt>
      <trkpt lat="42.95875" lon="0.2881">
        <ele>1619</ele>
        <time>2022-05-11T11:22:26Z</time>
      </trkpt>
      <trkpt lat="42.95897" lon="0.28816">
        <ele>1627</ele>
        <time>2022-05-11T11:22:56Z</time>
      </trkpt>
      <trkpt lat="42.9592" lon="0.28821">
        <ele>1633</ele>
        <time>2022-05-11T11:23:31Z</time>
      </trkpt>
      <trkpt lat="42.95938" lon="0.288">
        <ele>1631</ele>
        <time>2022-05-11T11:25:27Z</time>
      </trkpt>
      <trkpt lat="42.95924" lon="0.28775">
        <ele>1621</ele>
        <time>2022-05-11T11:27:40Z</time>
      </trkpt>
      <trkpt lat="42.96092" lon="0.28851">
        <ele>1581</ele>
        <time>2022-05-11T12:40:27Z</time>
      </trkpt>
      <trkpt lat="42.9611" lon="0.28833">
        <ele>1596</ele>
        <time>2022-05-11T12:40:57Z</time>
      </trkpt>
      <trkpt lat="42.96134" lon="0.28824">
        <ele>1588</ele>
        <time>2022-05-11T12:41:18Z</time>
      </trkpt>
      <trkpt lat="42.96155" lon="0.28814">
        <ele>1583</ele>
        <time>2022-05-11T12:41:55Z</time>
      </trkpt>
      <trkpt lat="42.9617" lon="0.28787">
        <ele>1570</ele>
        <time>2022-05-11T12:43:00Z</time>
      </trkpt>
      <trkpt lat="42.96192" lon="0.28779">
        <ele>1563</ele>
        <time>2022-05-11T12:43:34Z</time>
      </trkpt>
      <trkpt lat="42.96216" lon="0.28786">
        <ele>1546</ele>
        <time>2022-05-11T12:44:27Z</time>
      </trkpt>
      <trkpt lat="42.96238" lon="0.28795">
        <ele>1536</ele>
        <time>2022-05-11T12:45:07Z</time>
      </trkpt>
      <trkpt lat="42.96262" lon="0.28799">
        <ele>1534</ele>
        <time>2022-05-11T12:45:43Z</time>
      </trkpt>
      <trkpt lat="42.96286" lon="0.28806">
        <ele>1515</ele>
        <time>2022-05-11T12:46:45Z</time>
      </trkpt>
      <trkpt lat="42.96297" lon="0.28834">
        <ele>1513</ele>
        <time>2022-05-11T12:48:28Z</time>
      </trkpt>
      <trkpt lat="42.96303" lon="0.28865">
        <ele>1513</ele>
        <time>2022-05-11T12:48:53Z</time>
      </trkpt>
      <trkpt lat="42.96314" lon="0.28895">
        <ele>1512</ele>
        <time>2022-05-11T12:49:17Z</time>
      </trkpt>
      <trkpt lat="42.96325" lon="0.28925">
        <ele>1508</ele>
        <time>2022-05-11T12:49:46Z</time>
      </trkpt>
      <trkpt lat="42.96329" lon="0.28958">
        <ele>1508</ele>
        <time>2022-05-11T12:50:15Z</time>
      </trkpt>
      <trkpt lat="42.96334" lon="0.2899">
        <ele>1506</ele>
        <time>2022-05-11T12:50:42Z</time>
      </trkpt>
      <trkpt lat="42.9633" lon="0.29024">
        <ele>1501</ele>
        <time>2022-05-11T12:51:24Z</time>
      </trkpt>
      <trkpt lat="42.96315" lon="0.29048">
        <ele>1496</ele>
        <time>2022-05-11T12:51:48Z</time>
      </trkpt>
      <trkpt lat="42.96319" lon="0.29078">
        <ele>1493</ele>
        <time>2022-05-11T12:52:19Z</time>
      </trkpt>
      <trkpt lat="42.96323" lon="0.2911">
        <ele>1489</ele>
        <time>2022-05-11T12:53:26Z</time>
      </trkpt>
      <trkpt lat="42.96336" lon="0.29136">
        <ele>1485</ele>
        <time>2022-05-11T12:53:49Z</time>
      </trkpt>
      <trkpt lat="42.96344" lon="0.29167">
        <ele>1489</ele>
        <time>2022-05-11T12:54:18Z</time>
      </trkpt>
      <trkpt lat="42.96353" lon="0.29199">
        <ele>1488</ele>
        <time>2022-05-11T12:54:44Z</time>
      </trkpt>
      <trkpt lat="42.96368" lon="0.29222">
        <ele>1486</ele>
        <time>2022-05-11T12:55:15Z</time>
      </trkpt>
      <trkpt lat="42.96389" lon="0.2924">
        <ele>1483</ele>
        <time>2022-05-11T12:55:41Z</time>
      </trkpt>
      <trkpt lat="42.9641" lon="0.29257">
        <ele>1480</ele>
        <time>2022-05-11T12:56:06Z</time>
      </trkpt>
      <trkpt lat="42.96424" lon="0.29282">
        <ele>1481</ele>
        <time>2022-05-11T12:56:30Z</time>
      </trkpt>
      <trkpt lat="42.96427" lon="0.29313">
        <ele>1481</ele>
        <time>2022-05-11T12:56:52Z</time>
      </trkpt>
      <trkpt lat="42.96424" lon="0.29344">
        <ele>1480</ele>
        <time>2022-05-11T12:57:28Z</time>
      </trkpt>
      <trkpt lat="42.96424" lon="0.29376">
        <ele>1474</ele>
        <time>2022-05-11T12:58:29Z</time>
      </trkpt>
      <trkpt lat="42.96424" lon="0.29408">
        <ele>1472</ele>
        <time>2022-05-11T12:59:15Z</time>
      </trkpt>
      <trkpt lat="42.96429" lon="0.29439">
        <ele>1468</ele>
        <time>2022-05-11T13:00:20Z</time>
      </trkpt>
      <trkpt lat="42.96441" lon="0.29469">
        <ele>1454</ele>
        <time>2022-05-11T13:01:31Z</time>
      </trkpt>
      <trkpt lat="42.96452" lon="0.29498">
        <ele>1441</ele>
        <time>2022-05-11T13:01:58Z</time>
      </trkpt>
      <trkpt lat="42.96457" lon="0.2953">
        <ele>1439</ele>
        <time>2022-05-11T13:04:19Z</time>
      </trkpt>
      <trkpt lat="42.9647" lon="0.29554">
        <ele>1436</ele>
        <time>2022-05-11T13:04:50Z</time>
      </trkpt>
      <trkpt lat="42.96475" lon="0.2959">
        <ele>1438</ele>
        <time>2022-05-11T13:05:13Z</time>
      </trkpt>
      <trkpt lat="42.96457" lon="0.29612">
        <ele>1441</ele>
        <time>2022-05-11T13:05:30Z</time>
      </trkpt>
      <trkpt lat="42.96436" lon="0.29628">
        <ele>1444</ele>
        <time>2022-05-11T13:05:49Z</time>
      </trkpt>
      <trkpt lat="42.96423" lon="0.29657">
        <ele>1439</ele>
        <time>2022-05-11T13:06:22Z</time>
      </trkpt>
      <trkpt lat="42.96415" lon="0.29686">
        <ele>1437</ele>
        <time>2022-05-11T13:06:46Z</time>
      </trkpt>
      <trkpt lat="42.96402" lon="0.29712">
        <ele>1436</ele>
        <time>2022-05-11T13:07:42Z</time>
      </trkpt>
      <trkpt lat="42.96378" lon="0.29713">
        <ele>1436</ele>
        <time>2022-05-11T13:08:33Z</time>
      </trkpt>
      <trkpt lat="42.96356" lon="0.29724">
        <ele>1435</ele>
        <time>2022-05-11T13:09:18Z</time>
      </trkpt>
      <trkpt lat="42.96342" lon="0.29752">
        <ele>1416</ele>
        <time>2022-05-11T13:09:59Z</time>
      </trkpt>
      <trkpt lat="42.96333" lon="0.29781">
        <ele>1412</ele>
        <time>2022-05-11T13:10:31Z</time>
      </trkpt>
      <trkpt lat="42.96319" lon="0.29805">
        <ele>1417</ele>
        <time>2022-05-11T13:11:07Z</time>
      </trkpt>
      <trkpt lat="42.96311" lon="0.29837">
        <ele>1409</ele>
        <time>2022-05-11T13:11:52Z</time>
      </trkpt>
      <trkpt lat="42.96303" lon="0.29865">
        <ele>1403</ele>
        <time>2022-05-11T13:12:20Z</time>
      </trkpt>
      <trkpt lat="42.96299" lon="0.29897">
        <ele>1397</ele>
        <time>2022-05-11T13:13:00Z</time>
      </trkpt>
      <trkpt lat="42.96306" lon="0.29928">
        <ele>1392</ele>
        <time>2022-05-11T13:13:32Z</time>
      </trkpt>
      <trkpt lat="42.96305" lon="0.29961">
        <ele>1389</ele>
        <time>2022-05-11T13:14:08Z</time>
      </trkpt>
      <trkpt lat="42.96313" lon="0.29991">
        <ele>1387</ele>
        <time>2022-05-11T13:14:39Z</time>
      </trkpt>
      <trkpt lat="42.9632" lon="0.30021">
        <ele>1386</ele>
        <time>2022-05-11T13:15:01Z</time>
      </trkpt>
      <trkpt lat="42.96328" lon="0.30052">
        <ele>1379</ele>
        <time>2022-05-11T13:15:36Z</time>
      </trkpt>
      <trkpt lat="42.96332" lon="0.30083">
        <ele>1392</ele>
        <time>2022-05-11T13:17:29Z</time>
      </trkpt>
      <trkpt lat="42.96325" lon="0.30114">
        <ele>1386</ele>
        <time>2022-05-11T13:18:40Z</time>
      </trkpt>
      <trkpt lat="42.96333" lon="0.30145">
        <ele>1389</ele>
        <time>2022-05-11T13:19:01Z</time>
      </trkpt>
      <trkpt lat="42.96324" lon="0.30175">
        <ele>1390</ele>
        <time>2022-05-11T13:19:45Z</time>
      </trkpt>
      <trkpt lat="42.96317" lon="0.30206">
        <ele>1384</ele>
        <time>2022-05-11T13:20:31Z</time>
      </trkpt>
      <trkpt lat="42.96298" lon="0.30225">
        <ele>1387</ele>
        <time>2022-05-11T13:20:57Z</time>
      </trkpt>
      <trkpt lat="42.96279" lon="0.30246">
        <ele>1390</ele>
        <time>2022-05-11T13:21:22Z</time>
      </trkpt>
      <trkpt lat="42.96264" lon="0.30269">
        <ele>1389</ele>
        <time>2022-05-11T13:21:43Z</time>
      </trkpt>
      <trkpt lat="42.96246" lon="0.30289">
        <ele>1385</ele>
        <time>2022-05-11T13:25:04Z</time>
      </trkpt>
      <trkpt lat="42.96223" lon="0.30291">
        <ele>1381</ele>
        <time>2022-05-11T13:25:27Z</time>
      </trkpt>
      <trkpt lat="42.962" lon="0.30283">
        <ele>1375</ele>
        <time>2022-05-11T13:25:50Z</time>
      </trkpt>
      <trkpt lat="42.96181" lon="0.30263">
        <ele>1372</ele>
        <time>2022-05-11T13:26:21Z</time>
      </trkpt>
      <trkpt lat="42.96162" lon="0.30247">
        <ele>1363</ele>
        <time>2022-05-11T13:26:39Z</time>
      </trkpt>
      <trkpt lat="42.96146" lon="0.3022">
        <ele>1362</ele>
        <time>2022-05-11T13:27:02Z</time>
      </trkpt>
      <trkpt lat="42.96131" lon="0.30193">
        <ele>1359</ele>
        <time>2022-05-11T13:27:29Z</time>
      </trkpt>
      <trkpt lat="42.96111" lon="0.30172">
        <ele>1353</ele>
        <time>2022-05-11T13:27:55Z</time>
      </trkpt>
      <trkpt lat="42.96096" lon="0.30149">
        <ele>1353</ele>
        <time>2022-05-11T13:29:05Z</time>
      </trkpt>
      <trkpt lat="42.96077" lon="0.30165">
        <ele>1351</ele>
        <time>2022-05-11T13:30:41Z</time>
      </trkpt>
      <trkpt lat="42.96058" lon="0.30146">
        <ele>1350</ele>
        <time>2022-05-11T13:31:08Z</time>
      </trkpt>
      <trkpt lat="42.96037" lon="0.3013">
        <ele>1349</ele>
        <time>2022-05-11T13:31:36Z</time>
      </trkpt>
      <trkpt lat="42.96022" lon="0.30101">
        <ele>1351</ele>
        <time>2022-05-11T13:32:01Z</time>
      </trkpt>
      <trkpt lat="42.96002" lon="0.30088">
        <ele>1350</ele>
        <time>2022-05-11T13:32:26Z</time>
      </trkpt>
      <trkpt lat="42.95983" lon="0.30067">
        <ele>1348</ele>
        <time>2022-05-11T13:32:47Z</time>
      </trkpt>
      <trkpt lat="42.95961" lon="0.30057">
        <ele>1343</ele>
        <time>2022-05-11T13:33:15Z</time>
      </trkpt>
      <trkpt lat="42.95936" lon="0.30037">
        <ele>1340</ele>
        <time>2022-05-11T13:33:38Z</time>
      </trkpt>
      <trkpt lat="42.95914" lon="0.30023">
        <ele>1338</ele>
        <time>2022-05-11T13:34:08Z</time>
      </trkpt>
      <trkpt lat="42.95895" lon="0.30005">
        <ele>1337</ele>
        <time>2022-05-11T13:34:33Z</time>
      </trkpt>
      <trkpt lat="42.95872" lon="0.29987">
        <ele>1337</ele>
        <time>2022-05-11T13:35:02Z</time>
      </trkpt>
      <trkpt lat="42.9585" lon="0.29973">
        <ele>1337</ele>
        <time>2022-05-11T13:35:19Z</time>
      </trkpt>
      <trkpt lat="42.95828" lon="0.29961">
        <ele>1329</ele>
        <time>2022-05-11T13:35:37Z</time>
      </trkpt>
      <trkpt lat="42.95808" lon="0.29947">
        <ele>1316</ele>
        <time>2022-05-11T13:35:56Z</time>
      </trkpt>
      <trkpt lat="42.95785" lon="0.29935">
        <ele>1315</ele>
        <time>2022-05-11T13:36:23Z</time>
      </trkpt>
      <trkpt lat="42.95763" lon="0.29922">
        <ele>1319</ele>
        <time>2022-05-11T13:36:44Z</time>
      </trkpt>
      <trkpt lat="42.95742" lon="0.29904">
        <ele>1318</ele>
        <time>2022-05-11T13:37:07Z</time>
      </trkpt>
      <trkpt lat="42.95721" lon="0.2989">
        <ele>1316</ele>
        <time>2022-05-11T13:37:25Z</time>
      </trkpt>
      <trkpt lat="42.957" lon="0.2988">
        <ele>1306</ele>
        <time>2022-05-11T13:37:41Z</time>
      </trkpt>
      <trkpt lat="42.95679" lon="0.29866">
        <ele>1293</ele>
        <time>2022-05-11T13:37:59Z</time>
      </trkpt>
      <trkpt lat="42.95656" lon="0.29865">
        <ele>1287</ele>
        <time>2022-05-11T13:38:41Z</time>
      </trkpt>
      <trkpt lat="42.95632" lon="0.2985">
        <ele>1287</ele>
        <time>2022-05-11T13:39:07Z</time>
      </trkpt>
      <trkpt lat="42.9561" lon="0.29843">
        <ele>1279</ele>
        <time>2022-05-11T13:39:35Z</time>
      </trkpt>
      <trkpt lat="42.95588" lon="0.29831">
        <ele>1274</ele>
        <time>2022-05-11T13:39:56Z</time>
      </trkpt>
      <trkpt lat="42.95566" lon="0.29824">
        <ele>1262</ele>
        <time>2022-05-11T13:40:21Z</time>
      </trkpt>
      <trkpt lat="42.95541" lon="0.29817">
        <ele>1257</ele>
        <time>2022-05-11T13:40:43Z</time>
      </trkpt>
      <trkpt lat="42.95519" lon="0.29817">
        <ele>1253</ele>
        <time>2022-05-11T13:41:04Z</time>
      </trkpt>
      <trkpt lat="42.95492" lon="0.29821">
        <ele>1247</ele>
        <time>2022-05-11T13:41:23Z</time>
      </trkpt>
      <trkpt lat="42.9548" lon="0.29853">
        <ele>1242</ele>
        <time>2022-05-11T13:41:46Z</time>
      </trkpt>
      <trkpt lat="42.95462" lon="0.29875">
        <ele>1237</ele>
        <time>2022-05-11T13:42:07Z</time>
      </trkpt>
      <trkpt lat="42.95456" lon="0.29844">
        <ele>1238</ele>
        <time>2022-05-11T13:42:37Z</time>
      </trkpt>
      <trkpt lat="42.95468" lon="0.29817">
        <ele>1241</ele>
        <time>2022-05-11T13:43:04Z</time>
      </trkpt>
      <trkpt lat="42.95478" lon="0.29786">
        <ele>1241</ele>
        <time>2022-05-11T13:43:28Z</time>
      </trkpt>
      <trkpt lat="42.95485" lon="0.29755">
        <ele>1242</ele>
        <time>2022-05-11T13:43:53Z</time>
      </trkpt>
      <trkpt lat="42.95488" lon="0.29723">
        <ele>1241</ele>
        <time>2022-05-11T13:44:21Z</time>
      </trkpt>
      <trkpt lat="42.95481" lon="0.29694">
        <ele>1240</ele>
        <time>2022-05-11T13:44:37Z</time>
      </trkpt>
      <trkpt lat="42.95484" lon="0.29663">
        <ele>1242</ele>
        <time>2022-05-11T13:44:59Z</time>
      </trkpt>
      <trkpt lat="42.95483" lon="0.29631">
        <ele>1245</ele>
        <time>2022-05-11T13:46:31Z</time>
      </trkpt>
      <trkpt lat="42.95473" lon="0.29601">
        <ele>1232</ele>
        <time>2022-05-11T13:51:34Z</time>
      </trkpt>
      <trkpt lat="42.95476" lon="0.29569">
        <ele>1246</ele>
        <time>2022-05-11T13:51:55Z</time>
      </trkpt>
      <trkpt lat="42.95461" lon="0.29544">
        <ele>1258</ele>
        <time>2022-05-11T13:52:13Z</time>
      </trkpt>
      <trkpt lat="42.95443" lon="0.29521">
        <ele>1257</ele>
        <time>2022-05-11T13:52:29Z</time>
      </trkpt>
      <trkpt lat="42.95428" lon="0.29498">
        <ele>1253</ele>
        <time>2022-05-11T13:52:52Z</time>
      </trkpt>
      <trkpt lat="42.95403" lon="0.29484">
        <ele>1247</ele>
        <time>2022-05-11T13:53:13Z</time>
      </trkpt>
      <trkpt lat="42.95379" lon="0.29478">
        <ele>1233</ele>
        <time>2022-05-11T13:53:31Z</time>
      </trkpt>
      <trkpt lat="42.95355" lon="0.29486">
        <ele>1214</ele>
        <time>2022-05-11T13:53:46Z</time>
      </trkpt>
      <trkpt lat="42.95335" lon="0.29501">
        <ele>1199</ele>
        <time>2022-05-11T13:54:02Z</time>
      </trkpt>
      <trkpt lat="42.95317" lon="0.29524">
        <ele>1184</ele>
        <time>2022-05-11T13:54:32Z</time>
      </trkpt>
      <trkpt lat="42.95294" lon="0.2953">
        <ele>1186</ele>
        <time>2022-05-11T13:54:57Z</time>
      </trkpt>
      <trkpt lat="42.9527" lon="0.29533">
        <ele>1195</ele>
        <time>2022-05-11T13:55:29Z</time>
      </trkpt>
      <trkpt lat="42.95246" lon="0.29523">
        <ele>1196</ele>
        <time>2022-05-11T13:55:49Z</time>
      </trkpt>
      <trkpt lat="42.95224" lon="0.29514">
        <ele>1197</ele>
        <time>2022-05-11T13:56:12Z</time>
      </trkpt>
      <trkpt lat="42.95202" lon="0.29509">
        <ele>1199</ele>
        <time>2022-05-11T13:56:34Z</time>
      </trkpt>
      <trkpt lat="42.9518" lon="0.29497">
        <ele>1197</ele>
        <time>2022-05-11T13:56:52Z</time>
      </trkpt>
      <trkpt lat="42.9516" lon="0.29483">
        <ele>1194</ele>
        <time>2022-05-11T13:57:20Z</time>
      </trkpt>
      <trkpt lat="42.95139" lon="0.29472">
        <ele>1191</ele>
        <time>2022-05-11T13:58:09Z</time>
      </trkpt>
      <trkpt lat="42.95118" lon="0.29457">
        <ele>1190</ele>
        <time>2022-05-11T13:58:28Z</time>
      </trkpt>
      <trkpt lat="42.95095" lon="0.2944">
        <ele>1189</ele>
        <time>2022-05-11T13:59:31Z</time>
      </trkpt>
      <trkpt lat="42.95076" lon="0.29419">
        <ele>1186</ele>
        <time>2022-05-11T13:59:57Z</time>
      </trkpt>
      <trkpt lat="42.95054" lon="0.29407">
        <ele>1186</ele>
        <time>2022-05-11T14:00:19Z</time>
      </trkpt>
      <trkpt lat="42.95031" lon="0.29393">
        <ele>1178</ele>
        <time>2022-05-11T14:00:35Z</time>
      </trkpt>
      <trkpt lat="42.95005" lon="0.29395">
        <ele>1178</ele>
        <time>2022-05-11T14:01:01Z</time>
      </trkpt>
      <trkpt lat="42.94983" lon="0.29384">
        <ele>1186</ele>
        <time>2022-05-11T14:01:17Z</time>
      </trkpt>
      <trkpt lat="42.94963" lon="0.29363">
        <ele>1193</ele>
        <time>2022-05-11T14:01:43Z</time>
      </trkpt>
      <trkpt lat="42.94945" lon="0.29338">
        <ele>1188</ele>
        <time>2022-05-11T14:02:03Z</time>
      </trkpt>
      <trkpt lat="42.94921" lon="0.29329">
        <ele>1186</ele>
        <time>2022-05-11T14:02:25Z</time>
      </trkpt>
      <trkpt lat="42.94899" lon="0.2932">
        <ele>1190</ele>
        <time>2022-05-11T14:02:49Z</time>
      </trkpt>
      <trkpt lat="42.94879" lon="0.29304">
        <ele>1201</ele>
        <time>2022-05-11T14:03:13Z</time>
      </trkpt>
      <trkpt lat="42.94866" lon="0.29275">
        <ele>1203</ele>
        <time>2022-05-11T14:03:33Z</time>
      </trkpt>
      <trkpt lat="42.94865" lon="0.29243">
        <ele>1204</ele>
        <time>2022-05-11T14:04:03Z</time>
      </trkpt>
      <trkpt lat="42.94863" lon="0.29208">
        <ele>1202</ele>
        <time>2022-05-11T14:04:25Z</time>
      </trkpt>
      <trkpt lat="42.94861" lon="0.29173">
        <ele>1199</ele>
        <time>2022-05-11T14:04:46Z</time>
      </trkpt>
      <trkpt lat="42.9485" lon="0.29141">
        <ele>1197</ele>
        <time>2022-05-11T14:05:08Z</time>
      </trkpt>
      <trkpt lat="42.9483" lon="0.29122">
        <ele>1191</ele>
        <time>2022-05-11T14:05:22Z</time>
      </trkpt>
      <trkpt lat="42.94807" lon="0.29112">
        <ele>1180</ele>
        <time>2022-05-11T14:05:38Z</time>
      </trkpt>
      <trkpt lat="42.94782" lon="0.291">
        <ele>1165</ele>
        <time>2022-05-11T14:05:55Z</time>
      </trkpt>
      <trkpt lat="42.94758" lon="0.29104">
        <ele>1154</ele>
        <time>2022-05-11T14:06:21Z</time>
      </trkpt>
      <trkpt lat="42.94735" lon="0.29099">
        <ele>1158</ele>
        <time>2022-05-11T14:08:29Z</time>
      </trkpt>
      <trkpt lat="42.94715" lon="0.29084">
        <ele>1173</ele>
        <time>2022-05-11T14:09:46Z</time>
      </trkpt>
      <trkpt lat="42.94697" lon="0.29065">
        <ele>1175</ele>
        <time>2022-05-11T14:10:09Z</time>
      </trkpt>
      <trkpt lat="42.94677" lon="0.29049">
        <ele>1176</ele>
        <time>2022-05-11T14:10:27Z</time>
      </trkpt>
      <trkpt lat="42.94658" lon="0.29029">
        <ele>1179</ele>
        <time>2022-05-11T14:10:50Z</time>
      </trkpt>
      <trkpt lat="42.94642" lon="0.29006">
        <ele>1173</ele>
        <time>2022-05-11T14:11:09Z</time>
      </trkpt>
      <trkpt lat="42.94627" lon="0.28982">
        <ele>1171</ele>
        <time>2022-05-11T14:11:29Z</time>
      </trkpt>
      <trkpt lat="42.94607" lon="0.28961">
        <ele>1164</ele>
        <time>2022-05-11T14:11:48Z</time>
      </trkpt>
      <trkpt lat="42.94587" lon="0.28941">
        <ele>1155</ele>
        <time>2022-05-11T14:12:10Z</time>
      </trkpt>
      <trkpt lat="42.9457" lon="0.28921">
        <ele>1145</ele>
        <time>2022-05-11T14:12:31Z</time>
      </trkpt>
      <trkpt lat="42.94555" lon="0.28893">
        <ele>1124</ele>
        <time>2022-05-11T14:13:16Z</time>
      </trkpt>
      <trkpt lat="42.94537" lon="0.28872">
        <ele>1122</ele>
        <time>2022-05-11T14:13:38Z</time>
      </trkpt>
      <trkpt lat="42.94519" lon="0.28848">
        <ele>1117</ele>
        <time>2022-05-11T14:13:55Z</time>
      </trkpt>
      <trkpt lat="42.94496" lon="0.28861">
        <ele>1107</ele>
        <time>2022-05-11T14:14:25Z</time>
      </trkpt>
      <trkpt lat="42.94478" lon="0.28843">
        <ele>1111</ele>
        <time>2022-05-11T14:14:45Z</time>
      </trkpt>
      <trkpt lat="42.94458" lon="0.28827">
        <ele>1107</ele>
        <time>2022-05-11T14:16:54Z</time>
      </trkpt>
    </trkseg>
  </trk>
</gpx>